Aluminio, Brazil
Current Conditions -  °F | °C
As of 12:00 AM on Monday 22 Dec 2014 (Local Time) from SBKP Reporting Station
Broken Clouds Broken Clouds  
Wind Chill: 73°   Ceiling: 10000
Heat Index: 73°   Visibility: 6mi
Dew Point: 70°   Wind: 6mph
Humidity: 88%   Direction: 20°NNE
Pressure: 29.97"   Gusts: NA
Location:  23.54°S, 47.25°W
Report Text: SBKP 220200Z 02005KT 9999 SCT026 BKN100 23/21 Q1015
Loading
Personal Weather Stations






























Interactive Weather Map New forecast layout! Learn more

10-Day Weather Forecast

Advertisements
Track Severe Weather on mobile